FBSP

Selebi Phikwe Airport

Botswana
METAR FBSP 221800Z 00000KT CAVOK 21/13 Q1019
Observed Flight Rules
Apr-22 @ 18:00 UTC (19 minutes ago) Visual Flight Rules
Visibility Clouds
10,000+ meters
  • Clear skies
Temperatures Readings
Current 21°C / 70°F
Dewpoint 13°C / 55°F
Humidity 60%
Altimeter 30.09" Hg
Pressure 1019 hPa
Elevation 892
METAR FBSP 221800Z 00000KT CAVOK 21/13 Q1019
Observed Flight Rules
Apr-22 @ 18:00 UTC
(19 minutes ago)
VFR
Clouds
  • Clear skies
Temperature Dewpoint
21°C / 70°F 13°C / 55°F
Humidity Altimeter Pressure
60% 30.09" Hg 1019 hPa